createdAt,value
2022-10-13T00:01:36.954Z,101599.19
2022-10-13T00:04:04.893Z,101597.50
2022-10-13T00:06:32.517Z,101597.81
2022-10-13T00:09:00.334Z,101599.81
2022-10-13T00:11:29.762Z,101595.47
2022-10-13T00:14:03.732Z,101594.81
2022-10-13T00:16:34.244Z,101593.41
2022-10-13T00:19:02.349Z,101593.72
2022-10-13T00:21:30.355Z,101601.91
2022-10-13T00:23:58.103Z,101593.22
2022-10-13T00:26:26.892Z,101592.53
2022-10-13T00:28:56.341Z,101591.00
2022-10-13T00:31:27.352Z,101580.66
2022-10-13T00:33:56.175Z,101580.94
2022-10-13T00:36:24.714Z,101587.25
2022-10-13T00:38:52.975Z,101583.06
2022-10-13T00:41:21.223Z,101588.72
2022-10-13T00:44:00.321Z,101586.66
2022-10-13T00:46:30.913Z,101587.28
2022-10-13T00:49:14.408Z,101584.94
2022-10-13T00:51:49.953Z,101578.91
2022-10-13T00:54:22.990Z,101581.88
2022-10-13T00:56:52.276Z,101585.69
2022-10-13T00:59:24.447Z,101580.53
2022-10-13T01:01:54.767Z,101580.84
2022-10-13T01:04:25.755Z,101581.78
2022-10-13T01:06:59.873Z,101566.00
2022-10-13T01:09:27.524Z,101569.94
2022-10-13T01:12:24.204Z,101570.09
2022-10-13T01:15:28.100Z,101561.72
2022-10-13T01:18:26.823Z,101568.13
2022-10-13T01:21:16.102Z,101561.03
2022-10-13T01:24:08.173Z,101556.41
2022-10-13T01:27:02.993Z,101559.06
2022-10-13T01:30:08.101Z,101561.72
2022-10-13T01:32:53.674Z,101564.16
2022-10-13T01:35:31.793Z,101555.78
2022-10-13T01:38:17.063Z,101567.03
2022-10-13T01:40:54.814Z,101565.13
2022-10-13T01:43:29.851Z,101552.25
2022-10-13T01:46:14.130Z,101551.97
2022-10-13T01:48:44.213Z,101557.44
2022-10-13T01:51:16.809Z,101555.91
2022-10-13T01:53:46.421Z,101555.00
2022-10-13T01:56:14.536Z,101552.75
2022-10-13T01:58:42.752Z,101553.06
2022-10-13T02:01:31.315Z,101541.59
2022-10-13T02:04:17.077Z,101546.38
2022-10-13T02:07:23.744Z,101544.31
2022-10-13T02:10:23.872Z,101543.91
2022-10-13T02:13:00.906Z,101538.59
2022-10-13T02:15:39.942Z,101539.72
2022-10-13T02:18:11.197Z,101534.56
2022-10-13T02:20:41.732Z,101528.38
2022-10-13T02:23:13.261Z,101526.72
2022-10-13T02:25:42.105Z,101527.16
2022-10-13T02:28:11.211Z,101527.16
2022-10-13T02:30:44.464Z,101525.34
2022-10-13T02:33:13.353Z,101528.97
2022-10-13T02:35:42.255Z,101530.69
2022-10-13T02:38:10.650Z,101536.28
2022-10-13T02:40:38.305Z,101524.56
2022-10-13T02:43:05.996Z,101533.94
2022-10-13T02:45:33.756Z,101530.75
2022-10-13T02:48:01.583Z,101527.25
2022-10-13T02:50:29.773Z,101528.69
2022-10-13T02:52:59.523Z,101529.34
2022-10-13T02:55:27.190Z,101529.50
2022-10-13T02:57:57.032Z,101532.88
2022-10-13T03:00:24.960Z,101529.34
2022-10-13T03:02:52.805Z,101528.81
2022-10-13T03:05:20.412Z,101537.59
2022-10-13T03:07:48.213Z,101528.09
2022-10-13T03:10:16.418Z,101528.25
2022-10-13T03:12:45.305Z,101520.72
2022-10-13T03:15:13.079Z,101525.19
2022-10-13T03:17:41.284Z,101521.69
2022-10-13T03:20:09.493Z,101526.88
2022-10-13T03:22:37.222Z,101519.88
2022-10-13T03:25:05.514Z,101520.72
2022-10-13T03:27:33.773Z,101519.22
2022-10-13T03:30:01.623Z,101513.31
2022-10-13T03:32:32.146Z,101511.78
2022-10-13T03:34:59.778Z,101507.94
2022-10-13T03:37:29.706Z,101507.94
2022-10-13T03:39:57.441Z,101507.78
2022-10-13T03:42:25.054Z,101509.19
2022-10-13T03:44:56.393Z,101506.00
2022-10-13T03:47:24.410Z,101520.66
2022-10-13T03:49:54.858Z,101513.56
2022-10-13T03:52:23.275Z,101509.66
2022-10-13T03:54:50.880Z,101511.31
2022-10-13T03:57:18.648Z,101510.19
2022-10-13T03:59:46.190Z,101510.34
2022-10-13T04:02:14.062Z,101510.91
2022-10-13T04:04:41.881Z,101513.56
2022-10-13T04:07:09.518Z,101516.06
2022-10-13T04:09:37.132Z,101516.91
2022-10-13T04:12:05.614Z,101521.25
2022-10-13T04:14:33.305Z,101523.72
2022-10-13T04:17:09.152Z,101521.25
2022-10-13T04:19:36.935Z,101520.94
2022-10-13T04:22:06.451Z,101521.22
2022-10-13T04:24:34.262Z,101532.53
2022-10-13T04:27:01.940Z,101526.38
2022-10-13T04:29:29.693Z,101531.25
2022-10-13T04:31:59.783Z,101531.81
2022-10-13T04:34:36.437Z,101532.91
2022-10-13T04:37:07.063Z,101537.78
2022-10-13T04:39:34.813Z,101531.25
2022-10-13T04:42:02.506Z,101536.66
2022-10-13T04:44:31.207Z,101537.38
2022-10-13T04:47:05.175Z,101535.72
2022-10-13T04:49:32.903Z,101538.09
2022-10-13T04:52:06.743Z,101537.53
2022-10-13T04:54:34.365Z,101530.16
2022-10-13T04:57:02.009Z,101534.91
2022-10-13T04:59:29.735Z,101534.78
2022-10-13T05:01:57.280Z,101531.41
2022-10-13T05:04:27.781Z,101538.09
2022-10-13T05:07:19.226Z,101532.91
2022-10-13T05:09:43.882Z,101529.16
2022-10-13T05:12:13.762Z,101531.13
2022-10-13T05:14:41.383Z,101530.69
2022-10-13T05:17:09.277Z,101526.09
2022-10-13T05:19:37.077Z,101524.16
2022-10-13T05:22:04.868Z,101525.72
2022-10-13T05:24:38.918Z,101530.03
2022-10-13T05:27:10.342Z,101525.97
2022-10-13T05:29:38.834Z,101523.63
2022-10-13T05:32:18.921Z,101525.72
2022-10-13T05:34:49.864Z,101522.34
2022-10-13T05:37:18.505Z,101527.94
2022-10-13T05:39:48.853Z,101524.56
2022-10-13T05:42:17.014Z,101533.91
2022-10-13T05:44:44.892Z,101530.00
2022-10-13T05:47:12.680Z,101536.00
2022-10-13T05:49:41.083Z,101539.22
2022-10-13T05:52:12.659Z,101537.41
2022-10-13T05:54:46.801Z,101546.59
2022-10-13T05:57:31.274Z,101541.19
2022-10-13T06:00:05.913Z,101542.84
2022-10-13T06:02:51.453Z,101545.50
2022-10-13T06:05:36.360Z,101548.69
2022-10-13T06:08:10.104Z,101550.97
2022-10-13T06:10:38.274Z,101543.97
2022-10-13T06:13:09.754Z,101546.91
2022-10-13T06:15:43.413Z,101539.25
2022-10-13T06:18:11.298Z,101549.84
2022-10-13T06:21:09.125Z,101554.03
2022-10-13T06:23:45.809Z,101552.50
2022-10-13T06:26:13.723Z,101558.22
2022-10-13T06:28:42.658Z,101560.44
2022-10-13T06:31:12.922Z,101555.06
2022-10-13T06:33:49.019Z,101553.63
2022-10-13T06:36:22.745Z,101552.56
2022-10-13T06:38:53.303Z,101544.09
2022-10-13T06:41:22.090Z,101549.50
2022-10-13T06:43:49.842Z,101544.81
2022-10-13T06:46:17.853Z,101550.47
2022-10-13T06:48:45.591Z,101549.25
2022-10-13T06:51:13.455Z,101550.19
2022-10-13T06:53:41.475Z,101549.03
2022-10-13T06:56:10.026Z,101545.56
2022-10-13T06:58:38.492Z,101542.66
2022-10-13T07:01:18.480Z,101538.31
2022-10-13T07:03:49.676Z,101545.00
2022-10-13T07:06:19.945Z,101542.03
2022-10-13T07:08:52.302Z,101546.28
2022-10-13T07:11:29.186Z,101553.06
2022-10-13T07:13:57.206Z,101545.50
2022-10-13T07:16:24.952Z,101545.75
2022-10-13T07:18:52.712Z,101539.84
2022-10-13T07:21:20.322Z,101539.28
2022-10-13T07:23:56.678Z,101542.56
2022-10-13T07:26:24.473Z,101532.59
2022-10-13T07:28:53.113Z,101532.28
2022-10-13T07:31:21.373Z,101531.31
2022-10-13T07:33:50.597Z,101522.00
2022-10-13T07:36:27.825Z,101520.38
2022-10-13T07:38:58.820Z,101522.38
2022-10-13T07:41:26.603Z,101521.53
2022-10-13T07:43:57.352Z,101520.16
2022-10-13T07:46:27.915Z,101510.66
2022-10-13T07:48:55.531Z,101507.13
2022-10-13T07:51:29.206Z,101507.09
2022-10-13T07:53:57.064Z,101497.69
2022-10-13T07:56:24.752Z,101506.00
2022-10-13T07:58:52.436Z,101504.97
2022-10-13T08:04:35.506Z,101498.25
2022-10-13T08:07:05.908Z,101504.75
2022-10-13T08:09:35.194Z,101504.59
2022-10-13T08:12:03.381Z,101504.53
2022-10-13T08:14:31.539Z,101498.53
2022-10-13T08:16:59.391Z,101498.34
2022-10-13T08:19:28.538Z,101491.94
2022-10-13T08:22:09.170Z,101497.59
2022-10-13T08:24:37.774Z,101493.47
2022-10-13T08:27:17.537Z,101489.09
2022-10-13T08:29:48.791Z,101490.03
2022-10-13T08:32:18.487Z,101483.81
2022-10-13T08:34:46.401Z,101490.47
2022-10-13T08:37:19.259Z,101490.59
2022-10-13T08:39:47.395Z,101482.03
2022-10-13T08:42:21.091Z,101486.50
2022-10-13T08:45:28.373Z,101476.78
2022-10-13T08:47:54.783Z,101472.69
2022-10-13T08:50:25.529Z,101481.97
2022-10-13T08:53:00.800Z,101489.38
2022-10-13T08:55:38.845Z,101485.78
2022-10-13T08:58:31.183Z,101479.13
2022-10-13T09:01:15.238Z,101484.59
2022-10-13T09:03:55.944Z,101474.72
2022-10-13T09:06:31.944Z,101479.59
2022-10-13T09:09:03.395Z,101476.34
2022-10-13T09:11:40.653Z,101474.88
2022-10-13T09:14:11.526Z,101470.63
2022-10-13T09:16:41.886Z,101475.50
2022-10-13T09:19:34.411Z,101470.88
2022-10-13T09:22:24.293Z,101467.81
2022-10-13T09:25:13.062Z,101469.97
2022-10-13T09:28:01.424Z,101467.72
2022-10-13T09:31:31.683Z,101462.28
2022-10-13T09:34:22.803Z,101464.31
2022-10-13T09:37:05.090Z,101460.13
2022-10-13T09:39:34.182Z,101460.13
2022-10-13T09:42:28.042Z,101455.50
2022-10-13T09:45:25.741Z,101457.81
2022-10-13T09:47:59.923Z,101452.66
2022-10-13T09:50:30.265Z,101441.47
2022-10-13T09:53:49.621Z,101444.53
2022-10-13T09:56:25.314Z,101437.94
2022-10-13T09:59:23.551Z,101436.84
2022-10-13T10:01:54.949Z,101421.19
2022-10-13T10:04:43.423Z,101420.97
2022-10-13T10:07:16.258Z,101424.75
2022-10-13T10:10:23.240Z,101418.63
2022-10-13T10:12:51.574Z,101414.19
2022-10-13T10:15:33.344Z,101409.91
2022-10-13T10:18:14.635Z,101413.94
2022-10-13T10:20:55.655Z,101411.78
2022-10-13T10:23:35.840Z,101409.63
2022-10-13T10:26:20.770Z,101401.75
2022-10-13T10:29:08.997Z,101397.53
2022-10-13T10:32:37.596Z,101383.66
2022-10-13T10:35:58.192Z,101373.25
2022-10-13T10:38:48.688Z,101369.75
2022-10-13T10:41:32.927Z,101368.13
2022-10-13T10:44:08.002Z,101371.88
2022-10-13T10:46:40.642Z,101366.63
2022-10-13T10:49:22.586Z,101378.81
2022-10-13T10:51:50.414Z,101362.53
2022-10-13T10:54:20.753Z,101370.59
2022-10-13T10:57:10.494Z,101371.03
2022-10-13T11:00:15.837Z,101353.84
2022-10-13T11:03:13.623Z,101357.00
2022-10-13T11:06:00.752Z,101352.38
2022-10-13T11:09:06.304Z,101347.19
2022-10-13T11:11:39.501Z,101344.94
2022-10-13T11:14:27.105Z,101345.00
2022-10-13T11:17:06.985Z,101336.34
2022-10-13T11:19:36.934Z,101326.25
2022-10-13T11:22:04.634Z,101324.25
2022-10-13T11:24:36.289Z,101323.06
2022-10-13T11:27:15.863Z,101322.50
2022-10-13T11:29:51.828Z,101309.94
2022-10-13T11:32:45.042Z,101313.00
2022-10-13T11:35:12.745Z,101306.97
2022-10-13T11:38:16.818Z,101301.59
2022-10-13T11:41:31.091Z,101305.56
2022-10-13T11:44:19.747Z,101297.94
2022-10-13T11:47:08.480Z,101297.72
2022-10-13T11:49:58.842Z,101290.72
2022-10-13T11:52:42.201Z,101289.31
2022-10-13T11:55:16.788Z,101288.31
2022-10-13T11:58:23.319Z,101274.63
2022-10-13T12:01:01.338Z,101286.44
2022-10-13T12:03:35.273Z,101274.63
2022-10-13T12:06:21.077Z,101270.72
2022-10-13T12:09:33.803Z,101272.97
2022-10-13T12:12:12.879Z,101267.13
2022-10-13T12:14:48.266Z,101262.16
2022-10-13T12:17:36.103Z,101258.88
2022-10-13T12:20:30.770Z,101256.44
2022-10-13T12:23:17.555Z,101235.50
2022-10-13T12:25:57.573Z,101239.56
2022-10-13T12:28:50.418Z,101233.41
2022-10-13T12:31:27.198Z,101244.34
2022-10-13T12:33:57.679Z,101238.56
2022-10-13T12:39:26.104Z,101239.31
2022-10-13T12:41:56.406Z,101236.84
2022-10-13T12:44:27.179Z,101242.22
2022-10-13T12:46:59.789Z,101236.50
2022-10-13T12:49:33.337Z,101228.44
2022-10-13T12:52:10.134Z,101229.03
2022-10-13T12:54:40.315Z,101228.25
2022-10-13T12:57:19.291Z,101223.72
2022-10-13T12:59:47.913Z,101220.19
2022-10-13T13:02:28.344Z,101221.84
2022-10-13T13:04:56.254Z,101217.91
2022-10-13T13:07:26.920Z,101223.63
2022-10-13T13:10:09.527Z,101225.25
2022-10-13T13:12:38.274Z,101215.75
2022-10-13T13:15:35.138Z,101219.03
2022-10-13T13:18:42.540Z,101215.97
2022-10-13T13:21:13.755Z,101214.06
2022-10-13T13:23:51.005Z,101215.13
2022-10-13T13:26:23.916Z,101208.94
2022-10-13T13:28:54.419Z,101216.19
2022-10-13T13:31:24.796Z,101202.34
2022-10-13T13:33:53.244Z,101202.31
2022-10-13T13:36:23.597Z,101199.66
2022-10-13T13:38:54.704Z,101196.47
2022-10-13T13:41:23.043Z,101199.13
2022-10-13T13:43:50.797Z,101197.03
2022-10-13T13:46:22.461Z,101195.19
2022-10-13T13:48:50.996Z,101197.47
2022-10-13T13:51:18.714Z,101194.34
2022-10-13T13:53:46.487Z,101197.00
2022-10-13T13:56:16.823Z,101194.31
2022-10-13T13:58:45.348Z,101189.59
2022-10-13T14:01:13.821Z,101186.25
2022-10-13T14:03:42.050Z,101189.53
2022-10-13T14:06:20.875Z,101187.03
2022-10-13T14:08:49.073Z,101194.91
2022-10-13T14:11:16.776Z,101178.72
2022-10-13T14:13:44.583Z,101181.75
2022-10-13T14:16:17.895Z,101187.50
2022-10-13T14:18:45.708Z,101196.16
2022-10-13T14:21:13.399Z,101183.56
2022-10-13T14:23:45.820Z,101180.91
2022-10-13T14:26:15.779Z,101186.03
2022-10-13T14:28:45.096Z,101179.22
2022-10-13T14:31:13.047Z,101185.44
2022-10-13T14:33:41.836Z,101183.72
2022-10-13T14:36:10.107Z,101180.78
2022-10-13T14:38:37.835Z,101177.44
2022-10-13T14:41:06.831Z,101164.03
2022-10-13T14:43:34.438Z,101165.91
2022-10-13T14:46:06.826Z,101169.41
2022-10-13T14:48:35.998Z,101169.63
2022-10-13T14:51:07.947Z,101167.19
2022-10-13T14:53:44.531Z,101163.88
2022-10-13T14:56:21.419Z,101162.44
2022-10-13T14:58:54.913Z,101164.44
2022-10-13T15:01:22.849Z,101164.38
2022-10-13T15:03:50.700Z,101161.13
2022-10-13T15:06:21.536Z,101160.94
2022-10-13T15:08:49.933Z,101158.03
2022-10-13T15:11:19.087Z,101163.19
2022-10-13T15:13:46.833Z,101161.72
2022-10-13T15:16:18.340Z,101154.69
2022-10-13T15:18:47.430Z,101149.72
2022-10-13T15:21:19.266Z,101147.22
2022-10-13T15:23:47.973Z,101137.09
2022-10-13T15:26:17.555Z,101139.97
2022-10-13T15:28:47.704Z,101132.94
2022-10-13T15:31:16.435Z,101127.78
2022-10-13T15:33:48.914Z,101127.16
2022-10-13T15:36:16.683Z,101127.28
2022-10-13T15:38:44.357Z,101122.72
2022-10-13T15:41:12.725Z,101128.63
2022-10-13T15:43:40.704Z,101128.84
2022-10-13T15:46:13.053Z,101125.72
2022-10-13T15:48:40.825Z,101122.34
2022-10-13T15:51:16.956Z,101120.66
2022-10-13T15:53:46.955Z,101122.47
2022-10-13T15:56:17.051Z,101126.53
2022-10-13T15:58:45.867Z,101122.94
2022-10-13T16:01:14.702Z,101120.38
2022-10-13T16:03:43.028Z,101125.50
2022-10-13T16:06:12.675Z,101120.50
2022-10-13T16:08:44.360Z,101124.00
2022-10-13T16:11:14.226Z,101128.53
2022-10-13T16:13:45.648Z,101134.25
2022-10-13T16:16:14.372Z,101127.63
2022-10-13T16:18:42.609Z,101138.91
2022-10-13T16:21:26.046Z,101130.41
2022-10-13T16:23:53.867Z,101132.19
2022-10-13T16:26:22.473Z,101137.47
2022-10-13T16:28:56.890Z,101143.19
2022-10-13T16:31:25.769Z,101127.88
2022-10-13T16:33:58.408Z,101128.72
2022-10-13T16:36:26.488Z,101131.09
2022-10-13T16:38:55.256Z,101126.50
2022-10-13T16:41:24.089Z,101122.72
2022-10-13T16:43:51.923Z,101124.28
2022-10-13T16:46:20.717Z,101129.19
2022-10-13T16:48:48.934Z,101129.56
2022-10-13T16:51:23.634Z,101122.56
2022-10-13T16:53:53.112Z,101127.44
2022-10-13T16:56:24.639Z,101120.81
2022-10-13T16:58:57.897Z,101116.66
2022-10-13T17:01:26.466Z,101112.22
2022-10-13T17:03:54.732Z,101112.78
2022-10-13T17:06:25.678Z,101109.63
2022-10-13T17:09:03.529Z,101109.63
2022-10-13T17:11:33.037Z,101111.19
2022-10-13T17:14:01.866Z,101107.84
2022-10-13T17:16:34.177Z,101112.72
2022-10-13T17:19:02.518Z,101113.94
2022-10-13T17:21:48.205Z,101118.25
2022-10-13T17:24:17.152Z,101120.28
2022-10-13T17:26:44.913Z,101118.81
2022-10-13T17:29:12.813Z,101119.81
2022-10-13T17:31:40.659Z,101111.16
2022-10-13T17:34:09.576Z,101110.88
2022-10-13T17:36:37.876Z,101108.56
2022-10-13T17:39:14.749Z,101104.75
2022-10-13T17:41:43.524Z,101109.66
2022-10-13T17:44:11.868Z,101107.34
2022-10-13T17:46:39.982Z,101095.16
2022-10-13T17:49:10.928Z,101094.16
2022-10-13T17:51:39.826Z,101094.25
2022-10-13T17:54:12.964Z,101097.09
2022-10-13T17:56:42.578Z,101101.75
2022-10-13T17:59:10.435Z,101101.13
2022-10-13T18:01:38.866Z,101105.00
2022-10-13T18:04:11.351Z,101102.31
2022-10-13T18:06:41.328Z,101096.03
2022-10-13T18:09:13.315Z,101090.78
2022-10-13T18:11:46.902Z,101095.44
2022-10-13T18:14:21.666Z,101100.13
2022-10-13T18:16:50.695Z,101101.16
2022-10-13T18:19:21.579Z,101099.66
2022-10-13T18:21:49.702Z,101095.50
2022-10-13T18:24:17.464Z,101094.22
2022-10-13T18:26:46.492Z,101095.19
2022-10-13T18:29:14.323Z,101087.53
2022-10-13T18:31:42.857Z,101093.06
2022-10-13T18:34:16.134Z,101095.75
2022-10-13T18:36:50.752Z,101089.13
2022-10-13T18:39:29.141Z,101089.78
2022-10-13T18:41:57.777Z,101089.16
2022-10-13T18:44:39.957Z,101082.84
2022-10-13T18:47:08.191Z,101080.06
2022-10-13T18:49:35.971Z,101085.75
2022-10-13T18:52:04.075Z,101079.09
2022-10-13T18:54:31.878Z,101087.25
2022-10-13T18:56:59.835Z,101084.94
2022-10-13T18:59:27.678Z,101081.81
2022-10-13T19:01:55.478Z,101081.31
2022-10-13T19:04:24.038Z,101078.81
2022-10-13T19:06:53.409Z,101070.16
2022-10-13T19:09:21.788Z,101076.69
2022-10-13T19:11:49.610Z,101073.34
2022-10-13T19:14:19.038Z,101064.69
2022-10-13T19:16:46.887Z,101058.22
2022-10-13T19:19:14.955Z,101054.59
2022-10-13T19:21:42.903Z,101055.97
2022-10-13T19:24:12.021Z,101048.28
2022-10-13T19:26:39.788Z,101058.47
2022-10-13T19:29:11.207Z,101053.34
2022-10-13T19:31:41.558Z,101050.81
2022-10-13T19:34:11.401Z,101049.31
2022-10-13T19:36:45.055Z,101053.19
2022-10-13T19:39:19.596Z,101046.03
2022-10-13T19:41:48.425Z,101044.53
2022-10-13T19:44:17.184Z,101045.88
2022-10-13T19:46:46.516Z,101045.38
2022-10-13T19:49:17.209Z,101045.22
2022-10-13T19:51:49.411Z,101042.09
2022-10-13T19:54:19.116Z,101048.41
2022-10-13T19:56:49.270Z,101057.41
2022-10-13T19:59:17.897Z,101058.56
2022-10-13T20:01:45.816Z,101060.91
2022-10-13T20:04:14.796Z,101057.97
2022-10-13T20:06:44.865Z,101058.94
2022-10-13T20:09:13.286Z,101058.25
2022-10-13T20:11:42.370Z,101062.97
2022-10-13T20:14:10.857Z,101063.78
2022-10-13T20:16:38.555Z,101066.44
2022-10-13T20:19:07.117Z,101057.63
2022-10-13T20:21:34.935Z,101062.28
2022-10-13T20:24:02.692Z,101060.78
2022-10-13T20:26:30.344Z,101060.16
2022-10-13T20:28:58.451Z,101056.81
2022-10-13T20:31:27.004Z,101061.66
2022-10-13T20:33:56.283Z,101056.50
2022-10-13T20:36:26.271Z,101047.19
2022-10-13T20:38:55.168Z,101052.84
2022-10-13T20:41:28.738Z,101049.69
2022-10-13T20:43:58.329Z,101053.53
2022-10-13T20:46:26.918Z,101045.69
2022-10-13T20:49:11.772Z,101047.53
2022-10-13T20:51:40.919Z,101039.06
2022-10-13T20:54:09.668Z,101045.22
2022-10-13T20:56:37.605Z,101044.38
2022-10-13T20:59:11.763Z,101035.06
2022-10-13T21:01:40.798Z,101038.06
2022-10-13T21:04:08.725Z,101041.72
2022-10-13T21:06:36.462Z,101042.72
2022-10-13T21:09:05.810Z,101032.09
2022-10-13T21:11:58.508Z,101037.22
2022-10-13T21:14:36.080Z,101031.22
2022-10-13T21:17:03.990Z,101028.06
2022-10-13T21:19:32.147Z,101026.59
2022-10-13T21:22:00.078Z,101031.09
2022-10-13T21:24:27.869Z,101026.91
2022-10-13T21:26:55.668Z,101027.78
2022-10-13T21:29:29.777Z,101028.41
2022-10-13T21:31:57.595Z,101023.59
2022-10-13T21:34:25.435Z,101021.25
2022-10-13T21:36:53.459Z,101025.09
2022-10-13T21:39:23.058Z,101027.75
2022-10-13T21:41:50.725Z,101021.06
2022-10-13T21:44:18.418Z,101027.59
2022-10-13T21:46:53.082Z,101026.59
2022-10-13T21:49:21.659Z,101026.25
2022-10-13T21:51:49.499Z,101014.28
2022-10-13T21:54:17.265Z,101023.44
2022-10-13T21:56:45.178Z,101025.06
2022-10-13T21:59:13.968Z,101023.44
2022-10-13T22:01:42.478Z,101012.78
2022-10-13T22:04:14.816Z,101008.63
2022-10-13T22:06:43.047Z,101010.94
2022-10-13T22:09:14.288Z,101008.13
2022-10-13T22:11:43.258Z,100998.31
2022-10-13T22:14:14.175Z,101007.63
2022-10-13T22:16:45.884Z,101000.13
2022-10-13T22:19:15.338Z,101005.63
2022-10-13T22:21:47.404Z,100998.63
2022-10-13T22:24:17.699Z,101000.97
2022-10-13T22:26:47.532Z,101003.28
2022-10-13T22:29:19.639Z,101006.78
2022-10-13T22:31:48.904Z,101001.78
2022-10-13T22:34:25.309Z,101005.09
2022-10-13T22:36:54.853Z,101002.09
2022-10-13T22:39:25.548Z,101002.44
2022-10-13T22:41:54.120Z,100999.78
2022-10-13T22:44:22.058Z,100997.28
2022-10-13T22:46:50.819Z,101001.94
2022-10-13T22:49:43.557Z,101001.25
2022-10-13T22:52:11.908Z,101002.91
2022-10-13T22:55:04.800Z,100999.91
2022-10-13T22:57:33.168Z,100995.88
2022-10-13T23:00:00.930Z,100993.22
2022-10-13T23:02:28.821Z,100993.41
2022-10-13T23:04:56.555Z,100989.56
2022-10-13T23:07:29.764Z,100992.88
2022-10-13T23:10:22.557Z,100989.22
2022-10-13T23:12:50.889Z,100985.88
2022-10-13T23:15:21.864Z,100981.72
2022-10-13T23:17:49.657Z,100991.34
2022-10-13T23:20:17.561Z,100987.84
2022-10-13T23:22:45.585Z,100988.66
2022-10-13T23:25:13.294Z,100984.88
2022-10-13T23:27:41.783Z,100972.22
2022-10-13T23:30:10.068Z,100978.22
2022-10-13T23:32:38.792Z,100978.41
2022-10-13T23:35:06.710Z,100985.50
2022-10-13T23:37:35.778Z,100971.41
2022-10-13T23:40:03.922Z,100970.06
2022-10-13T23:42:31.761Z,100978.72
2022-10-13T23:44:59.502Z,100969.25
2022-10-13T23:47:27.211Z,100981.72
2022-10-13T23:49:54.809Z,100982.34
2022-10-13T23:52:22.840Z,100972.56
2022-10-13T23:54:50.566Z,100971.59
